Time;durP1;ratioP1;P1;durP2;ratioP2;P2;SDS_P1;SDS_P2;PMS_P1;PMS_P2;Temp;Humidity;BMP_temperature;BMP_pressure;BME280_temperature;BME280_humidity;BME280_pressure;Samples;Min_cycle;Max_cycle;Signal;HPM_P1;HPM_P2
2023/09/04 00:00:20;;;;;;;1.75;1.65;;;13.30;99.90;;;;;;5131269;27;20479;-91
2023/09/04 00:02:48;;;;;;;2.17;1.92;;;13.30;99.90;;;;;;5142276;27;20042;-89
2023/09/04 00:05:14;;;;;;;1.85;1.73;;;13.30;99.90;;;;;;5129156;27;20257;-89
2023/09/04 00:07:39;;;;;;;1.98;1.75;;;13.30;99.90;;;;;;5120752;27;20023;-89
2023/09/04 00:10:05;;;;;;;1.98;1.50;;;13.30;99.90;;;;;;5137891;27;20026;-89
2023/09/04 00:12:32;;;;;;;2.42;1.90;;;13.20;99.90;;;;;;5132850;27;20111;-89
2023/09/04 00:14:58;;;;;;;3.67;1.77;;;13.20;99.90;;;;;;5141408;27;20051;-91
2023/09/04 00:17:26;;;;;;;2.95;2.13;;;13.20;99.90;;;;;;5100170;27;20081;-95
2023/09/04 00:19:52;;;;;;;2.05;1.85;;;13.20;99.90;;;;;;5135378;27;20030;-89
2023/09/04 00:22:17;;;;;;;2.67;1.80;;;13.10;99.90;;;;;;5134425;27;20035;-88
2023/09/04 00:24:43;;;;;;;4.13;2.25;;;13.10;99.90;;;;;;5111991;27;20012;-89
2023/09/04 00:27:09;;;;;;;2.10;1.90;;;13.10;99.90;;;;;;5141078;27;20039;-92
2023/09/04 00:29:35;;;;;;;2.92;1.70;;;13.10;99.90;;;;;;5149063;27;20036;-96
2023/09/04 00:32:02;;;;;;;1.92;1.77;;;13.10;99.90;;;;;;5125527;27;20124;-89
2023/09/04 00:34:29;;;;;;;1.92;1.75;;;13.10;99.90;;;;;;5143957;27;20037;-89
2023/09/04 00:36:55;;;;;;;2.38;1.75;;;13.10;99.90;;;;;;5135652;27;20029;-89
2023/09/04 00:39:21;;;;;;;1.33;1.23;;;13.10;99.90;;;;;;5143775;27;20028;-90
2023/09/04 00:41:46;;;;;;;2.78;1.30;;;13.10;99.90;;;;;;5135560;27;20069;-90
2023/09/04 00:44:12;;;;;;;1.73;1.52;;;13.10;99.90;;;;;;5126488;27;20051;-89
2023/09/04 00:46:40;;;;;;;2.85;1.95;;;13.10;99.90;;;;;;5134303;27;20030;-92
2023/09/04 00:49:05;;;;;;;3.33;1.73;;;13.10;99.90;;;;;;5129320;27;20361;-89
2023/09/04 00:51:31;;;;;;;4.70;1.70;;;13.10;99.90;;;;;;5118201;27;20034;-89
2023/09/04 00:53:57;;;;;;;8.98;2.08;;;13.10;99.90;;;;;;5144542;27;20544;-89
2023/09/04 00:56:24;;;;;;;5.85;1.67;;;13.10;99.90;;;;;;5118009;27;20023;-89
2023/09/04 00:58:50;;;;;;;4.93;2.00;;;13.00;99.90;;;;;;5135334;27;20038;-88
2023/09/04 01:01:15;;;;;;;4.43;2.40;;;13.00;99.90;;;;;;5126272;27;20031;-88
2023/09/04 01:03:41;;;;;;;3.03;1.70;;;13.00;99.90;;;;;;5120558;27;20483;-89
2023/09/04 01:06:07;;;;;;;2.78;1.80;;;13.00;99.90;;;;;;5116408;27;20041;-88
2023/09/04 01:08:36;;;;;;;1.75;1.65;;;13.00;99.90;;;;;;5122243;27;20029;-95
2023/09/04 01:11:15;;;;;;;2.70;1.73;;;13.00;99.90;;;;;;5131142;27;20046;-88
2023/09/04 01:13:45;;;;;;;1.77;1.60;;;12.90;99.90;;;;;;5137758;27;20521;-89
2023/09/04 01:16:11;;;;;;;4.75;2.10;;;12.90;99.90;;;;;;5148594;27;20464;-90
2023/09/04 01:18:38;;;;;;;2.15;1.90;;;12.90;99.90;;;;;;5143620;27;20053;-89
2023/09/04 01:21:05;;;;;;;4.32;1.95;;;13.00;99.90;;;;;;5128047;27;20055;-89
2023/09/04 01:23:32;;;;;;;2.47;1.92;;;12.90;99.90;;;;;;5145497;27;20023;-89
2023/09/04 01:26:14;;;;;;;2.30;1.90;;;12.90;99.90;;;;;;5120020;27;20110;-89
2023/09/04 01:28:45;;;;;;;2.20;1.77;;;12.80;99.90;;;;;;5138244;27;20051;-90
2023/09/04 01:31:20;;;;;;;2.72;2.30;;;12.80;99.90;;;;;;5138013;27;20473;-91
2023/09/04 01:33:58;;;;;;;2.43;1.83;;;12.80;99.90;;;;;;5127427;27;20027;-89
2023/09/04 01:36:28;;;;;;;2.47;2.13;;;12.80;99.90;;;;;;5139029;27;20268;-96
2023/09/04 01:38:55;;;;;;;4.53;2.22;;;12.80;99.90;;;;;;5130290;27;20110;-94
2023/09/04 01:41:20;;;;;;;3.50;2.08;;;12.80;99.90;;;;;;5127494;27;20047;-89
2023/09/04 01:43:46;;;;;;;6.57;2.22;;;12.80;99.90;;;;;;5102176;27;20062;-89
2023/09/04 01:46:11;;;;;;;2.90;1.95;;;12.70;99.90;;;;;;5133707;27;20035;-88
2023/09/04 01:48:37;;;;;;;3.28;1.90;;;12.70;99.90;;;;;;5132473;27;20464;-88
2023/09/04 01:51:03;;;;;;;1.75;1.65;;;12.70;99.90;;;;;;5128764;27;20030;-88
2023/09/04 01:53:28;;;;;;;3.05;1.95;;;12.80;99.90;;;;;;5134198;27;20475;-90
2023/09/04 01:55:54;;;;;;;2.13;1.92;;;12.70;99.90;;;;;;5142087;27;20024;-91
2023/09/04 01:58:20;;;;;;;1.88;1.70;;;12.80;99.90;;;;;;5125820;27;20032;-91
2023/09/04 02:00:47;;;;;;;3.15;1.52;;;12.70;99.90;;;;;;5135703;27;20051;-90
2023/09/04 02:03:14;;;;;;;2.78;2.33;;;12.70;99.90;;;;;;5131430;27;20039;-87
2023/09/04 02:05:39;;;;;;;11.63;1.90;;;12.70;99.90;;;;;;5141323;27;20388;-89
2023/09/04 02:08:07;;;;;;;3.13;1.63;;;12.70;99.90;;;;;;5134945;27;20019;-88
2023/09/04 02:10:36;;;;;;;2.30;2.10;;;12.70;99.90;;;;;;5116633;27;20047;-89
2023/09/04 02:13:02;;;;;;;3.80;2.00;;;12.70;99.90;;;;;;5123333;27;20030;-90
2023/09/04 02:15:29;;;;;;;1.92;1.75;;;12.70;99.90;;;;;;5139398;27;20379;-89
2023/09/04 02:17:55;;;;;;;4.10;2.40;;;12.70;99.90;;;;;;5137850;27;20026;-89
2023/09/04 02:20:21;;;;;;;2.72;2.20;;;12.70;99.90;;;;;;5136347;27;20521;-88
2023/09/04 02:22:47;;;;;;;2.17;1.80;;;12.70;99.90;;;;;;5130329;27;20035;-88
2023/09/04 02:25:15;;;;;;;2.38;1.85;;;12.70;99.90;;;;;;5132675;27;20706;-96
2023/09/04 02:27:41;;;;;;;2.00;1.80;;;12.70;99.90;;;;;;5141020;27;20464;-88
2023/09/04 02:30:10;;;;;;;1.70;1.60;;;12.60;99.90;;;;;;5110735;27;20060;-88
2023/09/04 02:32:35;;;;;;;1.88;1.75;;;12.60;99.90;;;;;;5144590;27;20079;-89
2023/09/04 02:35:01;;;;;;;2.85;1.98;;;12.60;99.90;;;;;;5127991;27;20022;-89
2023/09/04 02:37:27;;;;;;;3.63;1.52;;;12.60;99.90;;;;;;5119160;27;20097;-88
2023/09/04 02:39:52;;;;;;;2.45;1.50;;;12.60;99.90;;;;;;5122134;27;20043;-89
2023/09/04 02:42:18;;;;;;;3.85;1.80;;;12.60;99.90;;;;;;5127734;27;20035;-88
2023/09/04 02:44:44;;;;;;;3.03;1.63;;;12.60;99.90;;;;;;5123653;27;20137;-88
2023/09/04 02:47:09;;;;;;;2.10;1.83;;;12.60;99.90;;;;;;5134893;27;20030;-90
2023/09/04 02:49:35;;;;;;;3.22;1.88;;;12.60;99.90;;;;;;5137031;27;20031;-88
2023/09/04 02:52:01;;;;;;;2.20;2.00;;;12.60;99.90;;;;;;5123183;27;20027;-88
2023/09/04 02:54:26;;;;;;;2.03;1.77;;;12.60;99.90;;;;;;5134780;27;20050;-88
2023/09/04 02:56:52;;;;;;;2.25;2.08;;;12.60;99.90;;;;;;5129925;27;20461;-89
2023/09/04 02:59:19;;;;;;;5.63;1.80;;;12.60;99.90;;;;;;5125942;27;20076;-88
2023/09/04 03:01:44;;;;;;;1.77;1.67;;;12.60;99.90;;;;;;5125126;27;20052;-89
2023/09/04 03:04:11;;;;;;;1.80;1.70;;;12.60;99.90;;;;;;5121474;27;20019;-89
2023/09/04 03:06:38;;;;;;;1.92;1.77;;;12.60;99.90;;;;;;5131706;27;20444;-88
2023/09/04 03:09:04;;;;;;;3.35;1.85;;;12.70;99.90;;;;;;5126709;27;20395;-88
2023/09/04 03:11:31;;;;;;;5.50;2.35;;;12.60;99.90;;;;;;5132817;27;20118;-95
2023/09/04 03:13:57;;;;;;;3.97;2.30;;;12.50;99.90;;;;;;5120903;27;20033;-94
2023/09/04 03:16:23;;;;;;;2.10;1.90;;;12.60;99.90;;;;;;5147021;27;20156;-89
2023/09/04 03:18:48;;;;;;;5.93;2.30;;;12.50;99.90;;;;;;5127762;27;20038;-89
2023/09/04 03:21:14;;;;;;;9.55;2.55;;;12.40;99.90;;;;;;5132586;27;20031;-88
2023/09/04 03:23:40;;;;;;;3.30;2.20;;;12.40;99.90;;;;;;5130293;27;20033;-91
2023/09/04 03:26:05;;;;;;;2.70;1.95;;;12.50;99.90;;;;;;5128446;27;20074;-87
2023/09/04 03:28:34;;;;;;;2.80;1.70;;;12.40;99.90;;;;;;5122985;27;20019;-95
2023/09/04 03:30:59;;;;;;;2.35;2.15;;;12.40;99.90;;;;;;5120723;27;20264;-87
2023/09/04 03:33:25;;;;;;;1.67;1.58;;;12.40;99.90;;;;;;5141940;27;20055;-90
2023/09/04 03:35:50;;;;;;;2.38;2.17;;;12.40;99.90;;;;;;5138125;27;20118;-91
2023/09/04 03:38:16;;;;;;;2.35;2.15;;;12.40;99.90;;;;;;5120477;27;20471;-90
2023/09/04 03:40:42;;;;;;;2.35;2.15;;;12.40;99.90;;;;;;5134579;27;20048;-88
2023/09/04 03:43:10;;;;;;;2.75;1.70;;;12.40;99.90;;;;;;5129431;27;20441;-90
2023/09/04 03:45:36;;;;;;;3.95;2.53;;;12.40;99.90;;;;;;5115127;27;20028;-91
2023/09/04 03:48:02;;;;;;;3.10;2.28;;;12.30;99.90;;;;;;5124065;27;20034;-88
2023/09/04 03:50:28;;;;;;;4.90;2.33;;;12.40;99.90;;;;;;5131087;27;20026;-90
2023/09/04 03:52:53;;;;;;;2.67;2.30;;;12.30;99.90;;;;;;5124600;27;20015;-90
2023/09/04 03:55:19;;;;;;;2.13;1.80;;;12.30;99.90;;;;;;5120707;27;20031;-92
2023/09/04 03:57:51;;;;;;;2.63;2.03;;;12.30;99.90;;;;;;5122539;27;20430;-89
2023/09/04 04:00:18;;;;;;;5.45;2.45;;;12.30;99.90;;;;;;5110410;27;20473;-88
2023/09/04 04:02:46;;;;;;;2.17;1.95;;;12.30;99.90;;;;;;5136360;27;20125;-88
2023/09/04 04:05:13;;;;;;;5.93;2.08;;;12.30;99.90;;;;;;5135318;27;20692;-88
2023/09/04 04:07:39;;;;;;;2.63;2.10;;;12.20;99.90;;;;;;5124444;27;20446;-89
2023/09/04 04:10:06;;;;;;;3.45;2.42;;;12.30;99.90;;;;;;5123267;27;20031;-95
2023/09/04 04:12:35;;;;;;;3.58;2.08;;;12.20;99.90;;;;;;5125265;27;20418;-88
2023/09/04 04:15:04;;;;;;;2.35;2.15;;;12.20;99.90;;;;;;5120516;27;20023;-88
2023/09/04 04:17:35;;;;;;;3.88;2.72;;;12.20;99.90;;;;;;5129059;27;20077;-94
2023/09/04 04:20:12;;;;;;;2.95;2.00;;;12.20;99.90;;;;;;5127905;27;20543;-89
2023/09/04 04:22:43;;;;;;;1.90;1.70;;;12.20;99.90;;;;;;5126000;27;20038;-89
2023/09/04 04:25:16;;;;;;;2.95;2.10;;;12.20;99.90;;;;;;5129153;27;20076;-91
2023/09/04 04:27:44;;;;;;;2.10;1.90;;;12.20;99.90;;;;;;5126782;27;20066;-89
2023/09/04 04:30:10;;;;;;;2.85;2.42;;;12.30;99.90;;;;;;5136998;27;20030;-90
2023/09/04 04:32:35;;;;;;;1.80;1.67;;;12.20;99.90;;;;;;5124296;27;20459;-89
2023/09/04 04:35:01;;;;;;;2.08;1.88;;;12.20;99.90;;;;;;5131065;27;20029;-91
2023/09/04 04:37:27;;;;;;;3.15;2.28;;;12.30;99.90;;;;;;5120538;27;20019;-88
2023/09/04 04:39:52;;;;;;;2.28;2.05;;;12.30;99.90;;;;;;5108091;27;20039;-89
2023/09/04 04:42:18;;;;;;;2.17;1.98;;;12.30;99.90;;;;;;5118666;27;20130;-89
2023/09/04 04:44:47;;;;;;;2.58;2.38;;;12.20;99.90;;;;;;5112461;27;20027;-93
2023/09/04 04:47:13;;;;;;;5.88;2.58;;;12.20;99.90;;;;;;5117093;27;20036;-92
2023/09/04 04:49:42;;;;;;;2.70;2.13;;;12.30;99.90;;;;;;5119849;27;20027;-90
2023/09/04 04:52:09;;;;;;;2.95;2.47;;;12.20;99.90;;;;;;5132398;27;20023;-91
2023/09/04 04:54:35;;;;;;;2.88;2.50;;;12.30;99.90;;;;;;5112872;27;20027;-90
2023/09/04 04:57:00;;;;;;;2.25;2.05;;;12.20;99.90;;;;;;5115511;27;20020;-90
2023/09/04 04:59:26;;;;;;;2.53;2.30;;;12.30;99.90;;;;;;5127443;27;20026;-89
2023/09/04 05:01:52;;;;;;;2.25;1.85;;;12.20;99.90;;;;;;5117285;27;20069;-90
2023/09/04 05:04:19;;;;;;;4.32;2.67;;;12.20;99.90;;;;;;5125501;27;20058;-90
2023/09/04 05:06:46;;;;;;;4.18;2.85;;;12.20;99.90;;;;;;5124012;27;20028;-89
2023/09/04 05:09:11;;;;;;;7.50;2.65;;;12.20;99.90;;;;;;5117504;27;20027;-90
2023/09/04 05:11:37;;;;;;;6.32;2.70;;;12.20;99.90;;;;;;5119076;27;20286;-89
2023/09/04 05:14:02;;;;;;;3.35;2.65;;;12.20;99.90;;;;;;5126542;27;20058;-89
2023/09/04 05:16:28;;;;;;;5.18;2.25;;;12.20;99.90;;;;;;5137981;27;20010;-91
2023/09/04 05:18:54;;;;;;;4.13;2.65;;;12.20;99.90;;;;;;5122185;27;20024;-90
2023/09/04 05:21:20;;;;;;;5.10;2.70;;;12.30;99.90;;;;;;5130393;27;20054;-89
2023/09/04 05:23:47;;;;;;;4.60;2.80;;;12.30;99.90;;;;;;5115441;27;20504;-90
2023/09/04 05:26:13;;;;;;;6.97;2.67;;;12.30;99.90;;;;;;5113489;27;20035;-89
2023/09/04 05:28:39;;;;;;;4.15;2.83;;;12.40;99.90;;;;;;5115198;27;20751;-90
2023/09/04 05:31:04;;;;;;;5.18;3.13;;;12.40;99.90;;;;;;5122032;27;20472;-89
2023/09/04 05:33:30;;;;;;;4.40;2.60;;;12.50;99.90;;;;;;5124949;27;20468;-93
2023/09/04 05:35:56;;;;;;;2.60;2.40;;;12.50;99.90;;;;;;5118113;27;20078;-90
2023/09/04 05:38:23;;;;;;;4.13;2.60;;;12.50;99.90;;;;;;5123978;27;20019;-90
2023/09/04 05:40:49;;;;;;;3.97;2.67;;;12.60;99.90;;;;;;5099078;27;20036;-89
2023/09/04 05:43:15;;;;;;;3.53;2.47;;;12.70;99.90;;;;;;5126111;27;20532;-90
2023/09/04 05:45:41;;;;;;;4.95;2.47;;;12.70;99.90;;;;;;5120206;27;20035;-89
2023/09/04 05:48:07;;;;;;;4.63;2.58;;;12.80;99.90;;;;;;5125610;27;20023;-88
2023/09/04 05:50:32;;;;;;;3.50;2.45;;;12.80;99.90;;;;;;5125760;27;20080;-88
2023/09/04 05:53:01;;;;;;;2.30;2.10;;;12.90;99.90;;;;;;5095957;27;20461;-92
2023/09/04 05:55:26;;;;;;;5.80;2.78;;;12.90;99.90;;;;;;5125185;27;20019;-89
2023/09/04 05:57:52;;;;;;;4.93;2.42;;;13.00;99.90;;;;;;5120672;27;20024;-89
2023/09/04 06:00:18;;;;;;;2.63;2.40;;;13.00;99.90;;;;;;5134361;27;20035;-89
2023/09/04 06:02:43;;;;;;;7.28;2.60;;;13.10;99.90;;;;;;5128875;27;20035;-89
2023/09/04 06:05:09;;;;;;;2.88;2.17;;;13.10;99.90;;;;;;5115037;27;20023;-90
2023/09/04 06:07:35;;;;;;;11.13;3.95;;;13.20;99.90;;;;;;5126269;27;20028;-89
2023/09/04 06:10:01;;;;;;;5.70;2.47;;;13.20;99.90;;;;;;5116313;27;20044;-89
2023/09/04 06:12:27;;;;;;;4.07;3.15;;;13.20;99.90;;;;;;5133448;27;20026;-89
2023/09/04 06:14:52;;;;;;;7.35;3.05;;;13.30;99.90;;;;;;5117698;27;20274;-89
2023/09/04 06:17:18;;;;;;;5.03;3.33;;;13.30;99.90;;;;;;5124683;27;20027;-89
2023/09/04 06:19:43;;;;;;;7.82;3.47;;;13.40;99.90;;;;;;5129978;27;20577;-88
2023/09/04 06:22:09;;;;;;;4.75;3.20;;;13.50;99.90;;;;;;5127862;27;20045;-89
2023/09/04 06:24:35;;;;;;;8.13;3.08;;;13.50;99.90;;;;;;5122142;27;20019;-88
2023/09/04 06:27:00;;;;;;;4.20;3.15;;;13.60;99.90;;;;;;5117529;27;20080;-89
2023/09/04 06:29:26;;;;;;;4.70;2.92;;;13.60;99.90;;;;;;5117136;27;20039;-92
2023/09/04 06:31:52;;;;;;;5.30;2.92;;;13.70;99.90;;;;;;5118108;27;20070;-89
2023/09/04 06:34:18;;;;;;;4.75;2.75;;;13.80;99.90;;;;;;5127054;27;20054;-89
2023/09/04 06:36:43;;;;;;;13.98;3.72;;;13.90;99.90;;;;;;5122032;27;20679;-88
2023/09/04 06:39:09;;;;;;;3.08;2.53;;;13.90;99.90;;;;;;5114809;27;20068;-90
2023/09/04 06:41:35;;;;;;;12.07;3.60;;;14.00;99.90;;;;;;5126055;27;20040;-90
2023/09/04 06:44:02;;;;;;;6.25;3.25;;;14.10;99.90;;;;;;5121078;27;20059;-90
2023/09/04 06:46:28;;;;;;;6.28;2.85;;;14.20;99.90;;;;;;5132142;27;20023;-90
2023/09/04 06:48:53;;;;;;;3.42;2.88;;;14.30;99.90;;;;;;5112576;27;20459;-90
2023/09/04 06:51:20;;;;;;;5.07;2.75;;;14.40;99.90;;;;;;5126592;27;20035;-92
2023/09/04 06:53:46;;;;;;;5.85;3.45;;;14.50;99.90;;;;;;5136026;27;20027;-90
2023/09/04 06:56:11;;;;;;;5.88;3.03;;;14.50;99.90;;;;;;5133386;27;20101;-90
2023/09/04 06:58:37;;;;;;;8.18;3.28;;;14.60;99.90;;;;;;5139167;27;20376;-86
2023/09/04 07:01:03;;;;;;;5.82;3.17;;;14.70;99.90;;;;;;5121943;27;20267;-87
2023/09/04 07:03:33;;;;;;;6.68;3.53;;;14.70;99.90;;;;;;5145102;27;20467;-89
2023/09/04 07:05:59;;;;;;;12.48;3.72;;;14.70;99.90;;;;;;5128601;27;20027;-88
2023/09/04 07:08:25;;;;;;;4.50;3.42;;;14.80;99.90;;;;;;5141173;27;20503;-88
2023/09/04 07:10:51;;;;;;;6.72;3.97;;;14.90;99.90;;;;;;5132879;27;20719;-88
2023/09/04 07:13:18;;;;;;;6.60;3.33;;;15.00;99.90;;;;;;5130978;27;20031;-88
2023/09/04 07:15:44;;;;;;;9.45;3.20;;;15.10;99.90;;;;;;5137608;27;20361;-88
2023/09/04 07:18:10;;;;;;;5.55;3.55;;;15.30;99.90;;;;;;5133052;27;20041;-89
2023/09/04 07:20:36;;;;;;;5.63;2.80;;;15.40;99.90;;;;;;5106494;27;20034;-89
2023/09/04 07:23:01;;;;;;;6.00;2.60;;;15.60;99.90;;;;;;5136320;27;20039;-88
2023/09/04 07:25:27;;;;;;;4.10;2.47;;;15.70;99.90;;;;;;5129252;27;20233;-87
2023/09/04 07:27:53;;;;;;;3.65;2.38;;;15.70;99.90;;;;;;5134699;27;20019;-93
2023/09/04 07:30:18;;;;;;;3.92;2.95;;;15.90;99.90;;;;;;5128597;27;20035;-89
2023/09/04 07:32:44;;;;;;;2.67;2.33;;;16.00;99.90;;;;;;5136678;27;20023;-89
2023/09/04 07:35:10;;;;;;;5.07;2.20;;;16.10;99.90;;;;;;5146186;27;20044;-89
2023/09/04 07:37:36;;;;;;;3.13;1.77;;;16.20;99.90;;;;;;5144805;27;20563;-89
2023/09/04 07:40:05;;;;;;;3.90;2.30;;;16.30;99.90;;;;;;5139868;27;20040;-90
2023/09/04 07:42:31;;;;;;;3.65;2.20;;;16.40;99.90;;;;;;5138074;27;20090;-89
2023/09/04 07:44:56;;;;;;;4.43;2.00;;;16.40;99.90;;;;;;5125279;27;20024;-90
2023/09/04 07:47:24;;;;;;;5.05;2.13;;;16.40;99.90;;;;;;5111103;28;20126;-89
2023/09/04 07:49:50;;;;;;;4.57;2.60;;;16.50;99.90;;;;;;5121239;27;20015;-89
2023/09/04 07:52:16;;;;;;;4.20;2.30;;;16.50;99.90;;;;;;5134921;27;20065;-89
2023/09/04 07:54:42;;;;;;;3.75;2.05;;;16.50;99.90;;;;;;5133979;27;20066;-87
2023/09/04 07:57:08;;;;;;;3.83;2.65;;;16.60;99.90;;;;;;5119955;27;20019;-90
2023/09/04 07:59:33;;;;;;;4.82;2.70;;;16.70;99.90;;;;;;5131970;27;20031;-90
2023/09/04 08:01:59;;;;;;;3.75;1.90;;;16.80;99.90;;;;;;5147194;27;20027;-90
2023/09/04 08:04:25;;;;;;;2.83;2.30;;;16.90;99.90;;;;;;5135770;27;20060;-92
2023/09/04 08:06:51;;;;;;;7.25;2.47;;;17.00;99.90;;;;;;5146067;27;20029;-88
2023/09/04 08:09:17;;;;;;;6.05;1.67;;;17.00;99.90;;;;;;5149095;27;20062;-91
2023/09/04 08:11:42;;;;;;;2.78;2.17;;;17.10;99.90;;;;;;5144980;27;20033;-90
2023/09/04 08:14:08;;;;;;;5.25;2.40;;;17.20;99.90;;;;;;5128664;27;20090;-92
2023/09/04 08:16:33;;;;;;;5.03;2.20;;;17.30;99.90;;;;;;5134728;27;20030;-88
2023/09/04 08:18:59;;;;;;;4.70;2.25;;;17.30;99.90;;;;;;5127393;27;20096;-90
2023/09/04 08:21:25;;;;;;;6.35;2.78;;;17.30;99.90;;;;;;5115759;27;20361;-91
2023/09/04 08:23:51;;;;;;;3.75;2.33;;;17.30;99.90;;;;;;5140253;27;20527;-89
2023/09/04 08:26:16;;;;;;;3.17;1.95;;;17.40;99.90;;;;;;5148104;27;20031;-90
2023/09/04 08:28:42;;;;;;;8.80;2.55;;;17.40;99.90;;;;;;5126853;27;20428;-91
2023/09/04 08:31:10;;;;;;;5.15;1.90;;;17.50;99.90;;;;;;5140034;27;20027;-91
2023/09/04 08:33:36;;;;;;;12.05;8.43;;;17.60;99.90;;;;;;5106601;27;20091;-89
2023/09/04 08:36:02;;;;;;;3.00;2.55;;;17.60;99.90;;;;;;5137252;27;20027;-90
2023/09/04 08:38:28;;;;;;;4.22;2.03;;;17.70;99.90;;;;;;5136839;27;20019;-88
2023/09/04 08:41:01;;;;;;;5.53;2.08;;;17.70;99.90;;;;;;5133576;27;20054;-94
2023/09/04 08:43:32;;;;;;;5.95;2.28;;;17.70;99.90;;;;;;5136623;27;20041;-93
2023/09/04 08:46:07;;;;;;;2.72;1.98;;;17.80;99.90;;;;;;5129545;27;20023;-92
2023/09/04 08:48:37;;;;;;;6.10;2.10;;;17.90;99.90;;;;;;5130193;27;20027;-91
2023/09/04 08:51:04;;;;;;;9.80;2.30;;;17.90;99.90;;;;;;5143511;27;20110;-92
2023/09/04 08:53:32;;;;;;;3.67;2.08;;;18.00;99.90;;;;;;5135331;27;20482;-93
2023/09/04 08:55:58;;;;;;;3.95;2.33;;;18.00;99.90;;;;;;5133667;27;20029;-91
2023/09/04 08:58:24;;;;;;;8.05;2.13;;;18.00;99.90;;;;;;5093112;27;20028;-91
2023/09/04 09:00:50;;;;;;;4.97;1.98;;;18.00;99.90;;;;;;5125651;27;20041;-94
2023/09/04 09:03:16;;;;;;;6.18;2.67;;;18.10;99.90;;;;;;5148469;27;20547;-93
2023/09/04 09:05:46;;;;;;;4.65;2.20;;;18.20;99.90;;;;;;5136597;27;20035;-93
2023/09/04 09:08:12;;;;;;;3.75;2.08;;;18.40;99.90;;;;;;5121259;27;20035;-92
2023/09/04 09:10:38;;;;;;;2.50;2.08;;;18.40;99.90;;;;;;5143424;27;20130;-93
2023/09/04 09:13:03;;;;;;;2.67;2.45;;;18.50;99.90;;;;;;5135840;27;20027;-93
2023/09/04 09:15:32;;;;;;;5.68;2.70;;;18.60;99.90;;;;;;5145032;27;20022;-90
2023/09/04 09:17:59;;;;;;;6.38;2.78;;;18.60;99.90;;;;;;5145519;27;20076;-92
2023/09/04 09:20:39;;;;;;;4.90;2.28;;;18.60;99.90;;;;;;5128017;27;20045;-92
2023/09/04 09:23:06;;;;;;;5.80;2.30;;;18.50;99.90;;;;;;5129849;27;20035;-90
2023/09/04 09:25:32;;;;;;;6.43;2.40;;;18.60;99.90;;;;;;5135287;27;20257;-88
2023/09/04 09:28:05;;;;;;;10.88;3.70;;;18.70;99.90;;;;;;5119950;27;20031;-90
2023/09/04 09:30:35;;;;;;;7.43;2.55;;;18.70;99.90;;;;;;5133810;27;20054;-90
2023/09/04 09:33:12;;;;;;;3.08;2.20;;;18.70;99.90;;;;;;5127246;27;20072;-92
2023/09/04 09:35:40;;;;;;;3.70;2.42;;;18.80;99.90;;;;;;5122974;27;20032;-92
2023/09/04 09:38:06;;;;;;;6.75;2.42;;;18.90;99.90;;;;;;5107351;28;20020;-92
2023/09/04 09:40:31;;;;;;;2.65;2.00;;;18.90;99.90;;;;;;5091414;27;20519;-92
2023/09/04 09:42:59;;;;;;;3.50;2.15;;;19.00;99.90;;;;;;5139638;27;20399;-92
2023/09/04 09:45:31;;;;;;;2.33;1.40;;;19.10;99.90;;;;;;5147508;27;20056;-92
2023/09/04 09:47:57;;;;;;;6.85;2.13;;;19.10;99.90;;;;;;5135289;27;20057;-92
2023/09/04 09:50:25;;;;;;;5.88;2.20;;;19.20;99.90;;;;;;5138739;27;20054;-92
2023/09/04 09:53:01;;;;;;;4.35;2.22;;;19.10;99.90;;;;;;5133414;27;20023;-94
2023/09/04 09:55:31;;;;;;;2.83;1.80;;;19.20;99.90;;;;;;5136436;27;20417;-93
2023/09/04 09:57:58;;;;;;;4.63;2.03;;;19.20;99.90;;;;;;5130561;27;20019;-92
2023/09/04 10:00:25;;;;;;;4.68;2.33;;;19.30;99.90;;;;;;5118541;27;20427;-92
2023/09/04 10:02:51;;;;;;;5.18;1.92;;;19.30;99.90;;;;;;5136709;27;20037;-92
2023/09/04 10:05:18;;;;;;;2.85;1.90;;;19.40;99.90;;;;;;5143903;27;20034;-91
2023/09/04 10:07:49;;;;;;;3.10;1.90;;;19.40;99.90;;;;;;5115847;27;20069;-90
2023/09/04 10:10:15;;;;;;;5.18;2.20;;;19.50;99.90;;;;;;5121919;27;20498;-92
2023/09/04 10:12:56;;;;;;;3.22;1.83;;;19.60;99.90;;;;;;5133586;27;20413;-93
2023/09/04 10:15:28;;;;;;;4.38;1.73;;;19.60;99.90;;;;;;5134236;27;20027;-93
2023/09/04 10:17:57;;;;;;;3.08;1.70;;;19.60;99.90;;;;;;5107697;28;20464;-92
2023/09/04 10:20:25;;;;;;;5.28;2.20;;;19.70;99.90;;;;;;5104834;28;20027;-92
2023/09/04 10:23:02;;;;;;;3.92;1.88;;;19.70;99.90;;;;;;5124013;27;20099;-95
2023/09/04 10:25:41;;;;;;;5.03;1.80;;;19.70;99.90;;;;;;5121907;27;20350;-91
2023/09/04 10:28:24;;;;;;;7.40;2.97;;;19.70;99.90;;;;;;5134422;27;20018;-93
2023/09/04 10:30:53;;;;;;;3.58;2.25;;;19.70;99.90;;;;;;5126264;27;20413;-91
2023/09/04 10:33:20;;;;;;;3.17;2.00;;;19.90;99.90;;;;;;5113482;27;20479;-92
2023/09/04 10:35:46;;;;;;;4.88;2.38;;;19.90;99.90;;;;;;5128182;27;20028;-92
2023/09/04 10:38:16;;;;;;;7.53;3.05;;;20.00;99.90;;;;;;5131998;27;20022;-91
2023/09/04 10:40:42;;;;;;;8.30;1.98;;;20.10;99.90;;;;;;5137862;27;20035;-86
2023/09/04 10:43:10;;;;;;;6.85;1.88;;;20.20;99.90;;;;;;5133592;27;20035;-91
2023/09/04 10:45:36;;;;;;;1.75;1.60;;;20.30;99.90;;;;;;5137242;27;20071;-92
2023/09/04 10:48:02;;;;;;;3.33;1.83;;;20.20;99.90;;;;;;5133337;27;20027;-93
2023/09/04 10:50:27;;;;;;;3.35;1.90;;;20.30;99.90;;;;;;5140008;27;20023;-92
2023/09/04 10:52:56;;;;;;;3.53;1.90;;;20.40;99.90;;;;;;5144089;27;20023;-91
2023/09/04 10:55:24;;;;;;;1.95;1.77;;;20.40;99.90;;;;;;5135641;27;20110;-92
2023/09/04 10:58:04;;;;;;;2.03;1.73;;;20.50;99.90;;;;;;5141753;27;20050;-91
2023/09/04 11:00:36;;;;;;;3.55;2.00;;;20.50;99.90;;;;;;5120151;27;20036;-92
2023/09/04 11:03:27;;;;;;;3.78;1.65;;;20.50;99.90;;;;;;5120177;28;20087;-93
2023/09/04 11:06:07;;;;;;;4.80;2.25;;;20.50;99.90;;;;;;5139739;27;20519;-92
2023/09/04 11:08:35;;;;;;;3.47;2.03;;;20.60;99.90;;;;;;5139554;27;20062;-93
2023/09/04 11:11:05;;;;;;;3.53;1.70;;;20.70;99.90;;;;;;5106780;27;20069;-92
2023/09/04 11:13:38;;;;;;;2.75;1.90;;;20.80;99.90;;;;;;5132117;27;20410;-91
2023/09/04 11:16:06;;;;;;;3.20;1.80;;;20.70;99.90;;;;;;5116768;27;20469;-93
2023/09/04 11:18:34;;;;;;;1.73;1.60;;;20.80;99.90;;;;;;5133917;27;20035;-93
2023/09/04 11:21:01;;;;;;;4.03;2.10;;;20.80;99.90;;;;;;5133687;27;20530;-91
2023/09/04 11:23:28;;;;;;;2.28;1.52;;;20.90;99.90;;;;;;5105559;27;20092;-92
2023/09/04 11:25:55;;;;;;;4.43;2.30;;;20.80;99.90;;;;;;5130125;27;20027;-91
2023/09/04 11:28:23;;;;;;;4.28;2.33;;;20.80;99.90;;;;;;5135425;27;20083;-92
2023/09/04 11:30:57;;;;;;;1.77;1.42;;;20.80;99.90;;;;;;5138608;27;20038;-90
2023/09/04 11:33:25;;;;;;;2.60;1.60;;;20.80;99.90;;;;;;5150739;27;20105;-92
2023/09/04 11:36:05;;;;;;;2.33;1.60;;;20.90;99.90;;;;;;5147047;27;20091;-93
2023/09/04 11:38:35;;;;;;;2.55;1.60;;;20.90;99.90;;;;;;5143627;27;20027;-94
2023/09/04 11:41:14;;;;;;;2.42;1.50;;;20.90;99.90;;;;;;5133278;27;20381;-93
2023/09/04 11:43:41;;;;;;;1.75;1.55;;;21.00;99.90;;;;;;5129206;27;20034;-93
2023/09/04 11:46:08;;;;;;;1.98;1.63;;;21.00;99.90;;;;;;5143116;27;20030;-93
2023/09/04 11:48:35;;;;;;;5.85;2.03;;;21.00;99.90;;;;;;5138813;27;20070;-92
2023/09/04 11:51:00;;;;;;;4.03;2.13;;;21.10;99.90;;;;;;5132798;27;20043;-92
2023/09/04 11:53:26;;;;;;;3.67;1.88;;;21.10;99.90;;;;;;5140134;27;20112;-92
2023/09/04 11:55:52;;;;;;;3.28;1.60;;;21.10;99.90;;;;;;5121999;27;20042;-93
2023/09/04 11:58:20;;;;;;;3.53;1.92;;;21.10;99.90;;;;;;5146279;27;20047;-93
2023/09/04 12:00:46;;;;;;;4.15;1.95;;;21.10;99.90;;;;;;5147159;27;20023;-90
2023/09/04 12:03:12;;;;;;;3.70;1.80;;;21.10;99.90;;;;;;5136619;27;20042;-92
2023/09/04 12:05:38;;;;;;;1.92;1.60;;;21.20;99.90;;;;;;5146229;27;20225;-92
2023/09/04 12:08:04;;;;;;;4.28;2.38;;;21.10;99.90;;;;;;5147800;27;20033;-89
2023/09/04 12:10:34;;;;;;;6.35;1.75;;;21.20;99.90;;;;;;5145366;27;20034;-92
2023/09/04 12:13:01;;;;;;;5.88;2.58;;;21.20;99.90;;;;;;5138113;27;20023;-91
2023/09/04 12:15:33;;;;;;;3.10;2.10;;;21.30;99.90;;;;;;5137629;27;20091;-88
2023/09/04 12:18:03;;;;;;;4.75;1.85;;;21.30;99.90;;;;;;5141476;27;20201;-92
2023/09/04 12:20:46;;;;;;;5.10;2.28;;;21.50;99.90;;;;;;5132471;27;20030;-92
2023/09/04 12:23:12;;;;;;;3.20;2.10;;;21.50;99.90;;;;;;5130862;27;20039;-94
2023/09/04 12:25:40;;;;;;;6.07;2.13;;;21.60;99.90;;;;;;5132907;27;20456;-93
2023/09/04 12:28:09;;;;;;;2.80;2.30;;;21.60;99.90;;;;;;5132914;27;20188;-92
2023/09/04 12:30:50;;;;;;;2.67;1.48;;;21.70;99.90;;;;;;5133255;27;20027;-93
2023/09/04 12:33:18;;;;;;;5.22;1.77;;;21.70;99.90;;;;;;5138467;27;20029;-92
2023/09/04 12:35:55;;;;;;;4.53;2.35;;;21.70;99.90;;;;;;5121921;27;20537;-92
2023/09/04 12:38:21;;;;;;;4.65;2.30;;;21.80;99.90;;;;;;5133742;27;20037;-90
2023/09/04 12:40:47;;;;;;;5.05;2.20;;;21.80;99.90;;;;;;5142166;27;20125;-93
2023/09/04 12:43:12;;;;;;;3.85;2.00;;;21.90;99.90;;;;;;5112837;27;20141;-91
2023/09/04 12:45:38;;;;;;;4.22;2.17;;;21.90;99.90;;;;;;5120590;27;20019;-91